Time;durP1;ratioP1;P1;durP2;ratioP2;P2;SDS_P1;SDS_P2;PMS_P1;PMS_P2;Temp;Humidity;BMP_temperature;BMP_pressure;BME280_temperature;BME280_humidity;BME280_pressure;Samples;Min_cycle;Max_cycle;Signal;HPM_P1;HPM_P2
2021/08/30 00:01:57;;;;;;;7.35;4.78;;;17.80;56.10;;;;;;5027365;28;20022;-83
2021/08/30 00:04:23;;;;;;;6.18;4.60;;;17.80;56.20;;;;;;5025693;28;20040;-84
2021/08/30 00:06:49;;;;;;;5.00;3.83;;;17.70;56.10;;;;;;5013557;28;20093;-84
2021/08/30 00:09:16;;;;;;;6.95;4.85;;;17.70;56.10;;;;;;5022178;28;20025;-83
2021/08/30 00:11:42;;;;;;;5.68;4.50;;;17.70;56.20;;;;;;5005718;28;20495;-82
2021/08/30 00:14:08;;;;;;;5.65;5.05;;;17.70;56.30;;;;;;5005825;28;20042;-82
2021/08/30 00:16:34;;;;;;;6.72;4.72;;;17.70;56.30;;;;;;5005733;28;20046;-82
2021/08/30 00:19:00;;;;;;;6.47;5.00;;;17.70;56.40;;;;;;5015176;28;20198;-83
2021/08/30 00:21:26;;;;;;;6.65;4.97;;;17.70;56.40;;;;;;5024738;28;20335;-83
2021/08/30 00:23:52;;;;;;;5.47;4.78;;;17.70;56.50;;;;;;5025114;28;20041;-83
2021/08/30 00:26:18;;;;;;;5.97;4.45;;;17.60;56.30;;;;;;5024572;28;20064;-82
2021/08/30 00:28:44;;;;;;;5.78;4.60;;;17.70;56.60;;;;;;5017144;28;20033;-81
2021/08/30 00:31:10;;;;;;;4.82;4.43;;;17.70;56.60;;;;;;5005246;28;20042;-82
2021/08/30 00:33:36;;;;;;;4.82;4.35;;;17.60;56.40;;;;;;4989042;28;20191;-82
2021/08/30 00:36:02;;;;;;;4.97;4.10;;;17.60;56.50;;;;;;5021975;28;20237;-82
2021/08/30 00:38:28;;;;;;;5.60;4.15;;;17.60;56.50;;;;;;5007133;28;20041;-82
2021/08/30 00:40:54;;;;;;;4.75;4.25;;;17.60;56.60;;;;;;4988686;28;20393;-81
2021/08/30 00:43:19;;;;;;;6.03;4.38;;;17.60;56.60;;;;;;5020846;28;20160;-82
2021/08/30 00:45:45;;;;;;;4.45;3.95;;;17.60;56.70;;;;;;5004853;28;20389;-81
2021/08/30 00:48:12;;;;;;;5.57;4.30;;;17.60;56.70;;;;;;5004624;28;20030;-82
2021/08/30 00:50:39;;;;;;;5.03;4.13;;;17.60;56.80;;;;;;4988453;28;20033;-81
2021/08/30 00:53:06;;;;;;;7.13;4.55;;;17.50;56.70;;;;;;5004636;28;20049;-82
2021/08/30 00:55:33;;;;;;;5.45;4.03;;;17.60;56.90;;;;;;5005960;28;20351;-81
2021/08/30 00:57:59;;;;;;;5.90;4.45;;;17.50;56.80;;;;;;5024464;28;20425;-82
2021/08/30 01:00:25;;;;;;;6.90;4.72;;;17.50;56.90;;;;;;5024544;28;20063;-81
2021/08/30 01:02:51;;;;;;;6.10;4.65;;;17.50;56.90;;;;;;5024325;28;20041;-82
2021/08/30 01:05:17;;;;;;;6.88;4.65;;;17.50;57.00;;;;;;5007492;28;20091;-81
2021/08/30 01:08:03;;;;;;;5.35;4.35;;;17.50;57.00;;;;;;5004851;28;20081;-81
2021/08/30 01:10:52;;;;;;;4.80;4.30;;;17.50;57.10;;;;;;4984618;28;20071;-81
2021/08/30 01:13:40;;;;;;;9.60;4.03;;;17.40;57.00;;;;;;4968313;28;20049;-82
2021/08/30 01:16:10;;;;;;;5.18;4.15;;;17.40;57.00;;;;;;5012380;28;20287;-81
2021/08/30 01:18:37;;;;;;;6.57;4.18;;;17.40;57.00;;;;;;5008461;28;20030;-83
2021/08/30 01:21:21;;;;;;;5.20;4.25;;;17.40;57.10;;;;;;4987489;28;20484;-81
2021/08/30 01:23:50;;;;;;;;;;;17.40;57.10;;;;;;5004779;28;20100;-81
2021/08/30 01:26:18;;;;;;;5.10;4.50;;;17.40;57.00;;;;;;4987993;28;19916;-81
2021/08/30 01:29:03;;;;;;;4.85;4.38;;;17.40;57.00;;;;;;5013094;28;20079;-81
2021/08/30 01:31:50;;;;;;;4.32;3.90;;;17.40;57.20;;;;;;5008748;28;20200;-81
2021/08/30 01:34:17;;;;;;;6.28;4.22;;;17.40;57.20;;;;;;5002358;28;20116;-81
2021/08/30 01:36:45;;;;;;;5.45;4.40;;;17.40;57.20;;;;;;4985535;28;20126;-81
2021/08/30 01:39:11;;;;;;;6.53;4.50;;;17.40;57.20;;;;;;4998515;28;20026;-80
2021/08/30 01:41:40;;;;;;;5.85;4.90;;;17.40;57.30;;;;;;5005059;28;20030;-80
2021/08/30 01:44:07;;;;;;;6.80;5.05;;;17.40;57.40;;;;;;5004700;28;20494;-81
2021/08/30 01:46:35;;;;;;;6.03;4.15;;;17.40;57.40;;;;;;4999717;28;20062;-81
2021/08/30 01:49:01;;;;;;;6.70;4.70;;;17.40;57.50;;;;;;5002830;28;20141;-82
2021/08/30 01:51:28;;;;;;;4.90;4.32;;;17.40;57.50;;;;;;4988415;28;20054;-81
2021/08/30 01:53:56;;;;;;;4.75;4.32;;;17.40;57.60;;;;;;4988785;28;20035;-81
2021/08/30 01:56:26;;;;;;;6.18;4.00;;;17.40;57.60;;;;;;4992199;28;20034;-81
2021/08/30 02:01:38;;;;;;;18.15;4.53;;;17.30;57.50;;;;;;5007361;28;20040;-81
2021/08/30 02:04:04;;;;;;;6.68;4.53;;;17.30;57.50;;;;;;5012133;28;20113;-81
2021/08/30 02:06:32;;;;;;;4.72;3.95;;;17.30;57.50;;;;;;5012024;28;20504;-81
2021/08/30 02:08:59;;;;;;;6.97;3.85;;;17.30;57.60;;;;;;5013633;28;20057;-82
2021/08/30 02:11:35;;;;;;;6.28;4.10;;;17.30;57.60;;;;;;5011386;28;20148;-81
2021/08/30 02:14:02;;;;;;;4.05;3.65;;;17.30;57.70;;;;;;5013542;28;20053;-81
2021/08/30 02:16:28;;;;;;;6.03;4.68;;;17.30;57.60;;;;;;5012009;28;20030;-82
2021/08/30 02:19:16;;;;;;;5.93;3.40;;;17.30;57.70;;;;;;4997183;28;20026;-82
2021/08/30 02:21:46;;;;;;;6.85;4.85;;;17.30;57.80;;;;;;4991499;28;20497;-82
2021/08/30 02:24:50;;;;;;;4.15;3.78;;;17.30;57.80;;;;;;4991747;28;20041;-81
2021/08/30 02:27:29;;;;;;;6.65;4.35;;;17.30;57.80;;;;;;4917221;29;20123;-81
2021/08/30 02:30:06;;;;;;;5.00;4.32;;;17.30;57.80;;;;;;4984739;28;20046;-82
2021/08/30 02:32:34;;;;;;;5.50;4.03;;;17.20;57.60;;;;;;5008479;28;20035;-82
2021/08/30 02:35:02;;;;;;;4.28;3.70;;;17.30;58.00;;;;;;4976319;28;20030;-82
2021/08/30 02:37:31;;;;;;;6.05;3.90;;;17.30;57.80;;;;;;4992682;28;20079;-84
2021/08/30 02:40:00;;;;;;;6.30;4.30;;;17.20;57.60;;;;;;4992373;28;20094;-82
2021/08/30 02:42:28;;;;;;;5.43;4.03;;;17.30;57.90;;;;;;4991995;28;20027;-82
2021/08/30 02:44:55;;;;;;;5.22;4.00;;;17.20;57.70;;;;;;4992112;28;20054;-82
2021/08/30 02:47:22;;;;;;;5.10;4.13;;;17.20;57.80;;;;;;4997212;28;20030;-82
2021/08/30 02:49:50;;;;;;;4.65;4.25;;;17.20;57.80;;;;;;5011454;28;20030;-81
2021/08/30 02:52:18;;;;;;;6.97;4.43;;;17.20;57.90;;;;;;5010892;28;20026;-81
2021/08/30 02:54:46;;;;;;;6.03;4.63;;;17.20;57.90;;;;;;5012556;28;20030;-82
2021/08/30 02:57:13;;;;;;;5.45;4.13;;;17.20;57.90;;;;;;5011681;28;20511;-81
2021/08/30 02:59:40;;;;;;;5.28;4.40;;;17.20;57.90;;;;;;5011559;28;20259;-82
2021/08/30 03:02:07;;;;;;;4.72;4.28;;;17.20;57.90;;;;;;5011342;28;20125;-81
2021/08/30 03:04:35;;;;;;;5.50;3.97;;;17.20;58.00;;;;;;5011128;28;20095;-83
2021/08/30 03:07:03;;;;;;;5.88;4.63;;;17.20;58.10;;;;;;5010557;28;20507;-82
2021/08/30 03:09:29;;;;;;;6.20;4.05;;;17.10;57.90;;;;;;5011058;28;20036;-81
2021/08/30 03:11:57;;;;;;;5.18;4.68;;;17.10;57.90;;;;;;5011103;28;20414;-82
2021/08/30 03:14:25;;;;;;;4.72;4.32;;;17.10;58.00;;;;;;5012977;28;20182;-82
2021/08/30 03:16:58;;;;;;;6.00;5.15;;;17.10;57.90;;;;;;5012619;28;20061;-82
2021/08/30 03:19:25;;;;;;;8.73;4.32;;;17.10;58.00;;;;;;5047266;28;20053;-82
2021/08/30 03:21:51;;;;;;;5.60;4.60;;;17.10;58.00;;;;;;5029948;28;20032;-83
2021/08/30 03:24:19;;;;;;;5.60;5.10;;;17.10;58.60;;;;;;5030726;28;20046;-82
2021/08/30 03:26:47;;;;;;;4.93;4.50;;;17.10;58.10;;;;;;5030650;28;20089;-81
2021/08/30 03:29:15;;;;;;;6.22;4.45;;;17.10;58.10;;;;;;5030205;28;20030;-82
2021/08/30 03:31:42;;;;;;;5.30;4.80;;;17.10;58.10;;;;;;5030578;28;20026;-82
2021/08/30 03:34:09;;;;;;;4.38;4.05;;;17.10;58.10;;;;;;5030410;28;20033;-82
2021/08/30 03:36:36;;;;;;;4.72;4.18;;;17.10;58.10;;;;;;5030378;28;20029;-83
2021/08/30 03:39:03;;;;;;;4.88;4.13;;;17.10;58.10;;;;;;5014139;28;20072;-83
2021/08/30 03:41:30;;;;;;;6.30;4.85;;;17.00;58.00;;;;;;5030595;28;20227;-82
2021/08/30 03:43:59;;;;;;;5.28;4.43;;;17.10;58.20;;;;;;5030180;28;20091;-82
2021/08/30 03:46:26;;;;;;;6.00;4.80;;;17.10;58.30;;;;;;5030646;28;20463;-83
2021/08/30 03:48:53;;;;;;;5.20;4.78;;;17.00;58.10;;;;;;5013204;28;20046;-84
2021/08/30 03:51:20;;;;;;;5.32;4.80;;;17.00;58.10;;;;;;5010159;28;20465;-82
2021/08/30 03:53:46;;;;;;;5.90;4.93;;;17.00;58.10;;;;;;5012342;28;20354;-82
2021/08/30 03:56:13;;;;;;;6.50;4.40;;;17.00;58.20;;;;;;5011701;28;20030;-82
2021/08/30 03:58:41;;;;;;;5.30;4.65;;;17.00;58.20;;;;;;5009976;28;20030;-81
2021/08/30 04:01:09;;;;;;;5.57;4.85;;;17.00;58.30;;;;;;5010297;28;20084;-82
2021/08/30 04:03:38;;;;;;;5.72;4.93;;;17.00;58.30;;;;;;5010147;28;20520;-82
2021/08/30 04:06:07;;;;;;;5.18;4.68;;;16.90;58.10;;;;;;5011342;28;20128;-81
2021/08/30 04:08:33;;;;;;;5.32;4.65;;;17.00;58.30;;;;;;5010419;28;20041;-82
2021/08/30 04:11:00;;;;;;;5.88;4.85;;;16.90;58.20;;;;;;5009831;28;20045;-81
2021/08/30 04:13:27;;;;;;;5.55;4.97;;;16.90;58.20;;;;;;5009928;28;20477;-80
2021/08/30 04:15:53;;;;;;;5.47;4.57;;;16.90;58.20;;;;;;5010822;28;20036;-80
2021/08/30 04:18:19;;;;;;;5.07;4.45;;;16.90;58.80;;;;;;4996947;28;20066;-82
2021/08/30 04:20:45;;;;;;;5.93;4.85;;;16.90;58.30;;;;;;4991288;28;20120;-82
2021/08/30 04:23:11;;;;;;;5.65;5.10;;;16.90;58.30;;;;;;5006573;28;20034;-82
2021/08/30 04:25:37;;;;;;;5.68;4.45;;;16.90;58.30;;;;;;4991160;28;20681;-80
2021/08/30 04:28:04;;;;;;;5.90;5.07;;;16.90;58.40;;;;;;4991648;28;20026;-81
2021/08/30 04:30:30;;;;;;;6.32;5.18;;;16.90;58.40;;;;;;4990888;28;20026;-80
2021/08/30 04:32:56;;;;;;;5.10;4.57;;;16.90;58.40;;;;;;4989961;28;20058;-82
2021/08/30 04:35:23;;;;;;;6.07;4.70;;;16.90;58.50;;;;;;4991504;28;20049;-82
2021/08/30 04:37:49;;;;;;;6.25;5.65;;;16.90;58.50;;;;;;5005964;28;20110;-81
2021/08/30 04:40:15;;;;;;;5.38;4.90;;;16.80;58.30;;;;;;5006895;28;20084;-83
2021/08/30 04:42:41;;;;;;;4.68;4.28;;;16.80;58.30;;;;;;4974063;28;20489;-83
2021/08/30 04:45:08;;;;;;;5.45;4.95;;;16.80;58.40;;;;;;5006887;28;20046;-82
2021/08/30 04:47:35;;;;;;;7.95;5.05;;;16.80;58.40;;;;;;5003437;28;20050;-84
2021/08/30 04:50:02;;;;;;;5.03;4.53;;;16.80;58.40;;;;;;4988623;28;20030;-83
2021/08/30 04:52:28;;;;;;;5.15;4.65;;;16.80;58.50;;;;;;4989701;28;20073;-83
2021/08/30 04:54:54;;;;;;;5.78;5.18;;;16.80;58.50;;;;;;4987092;28;20092;-84
2021/08/30 04:57:20;;;;;;;4.85;4.35;;;16.80;58.50;;;;;;4988064;28;20474;-82
2021/08/30 04:59:46;;;;;;;5.93;5.18;;;16.80;58.50;;;;;;5007910;28;20057;-83
2021/08/30 05:02:12;;;;;;;4.82;4.30;;;16.80;58.60;;;;;;5005928;28;20583;-82
2021/08/30 05:04:38;;;;;;;5.28;4.78;;;16.70;58.40;;;;;;5000694;28;20042;-82
2021/08/30 05:07:04;;;;;;;7.68;4.50;;;16.70;58.40;;;;;;5000780;28;20029;-83
2021/08/30 05:09:30;;;;;;;4.90;4.40;;;16.70;58.40;;;;;;5004304;28;20026;-84
2021/08/30 05:11:57;;;;;;;4.95;4.47;;;16.70;58.50;;;;;;5004152;28;20056;-83
2021/08/30 05:14:23;;;;;;;4.95;4.45;;;16.70;58.50;;;;;;5005361;28;20093;-82
2021/08/30 05:16:48;;;;;;;6.72;4.22;;;16.70;58.50;;;;;;5004304;28;20101;-82
2021/08/30 05:19:14;;;;;;;4.50;4.10;;;16.70;58.50;;;;;;4994220;28;20402;-82
2021/08/30 05:21:40;;;;;;;4.93;4.30;;;16.70;58.60;;;;;;5010271;28;20037;-83
2021/08/30 05:24:09;;;;;;;6.22;4.25;;;16.70;58.60;;;;;;5004557;28;20365;-83
2021/08/30 05:26:36;;;;;;;4.88;4.30;;;16.70;58.60;;;;;;5001375;28;20390;-83
2021/08/30 05:29:03;;;;;;;6.00;5.05;;;16.60;58.40;;;;;;5005229;28;20033;-83
2021/08/30 05:31:30;;;;;;;4.40;4.00;;;16.60;58.50;;;;;;5004189;28;20125;-83
2021/08/30 05:33:58;;;;;;;4.88;4.40;;;16.70;58.70;;;;;;5005391;28;20038;-84
2021/08/30 05:36:25;;;;;;;5.55;4.53;;;16.70;58.70;;;;;;4987920;28;20030;-83
2021/08/30 05:38:52;;;;;;;5.38;4.30;;;16.70;58.70;;;;;;5005498;28;20132;-86
2021/08/30 05:41:19;;;;;;;6.28;4.78;;;16.70;58.70;;;;;;5005152;28;20074;-84
2021/08/30 05:43:45;;;;;;;5.88;4.38;;;16.60;58.60;;;;;;5004552;28;20234;-85
2021/08/30 05:46:15;;;;;;;4.93;4.40;;;16.60;58.70;;;;;;5004651;28;20045;-83
2021/08/30 05:48:46;;;;;;;6.30;4.65;;;16.60;58.70;;;;;;5004949;28;20389;-83
2021/08/30 05:51:12;;;;;;;5.28;4.78;;;16.60;58.70;;;;;;5007114;28;20025;-82
2021/08/30 05:53:39;;;;;;;5.05;4.55;;;16.60;58.70;;;;;;5010747;28;20481;-82
2021/08/30 05:56:05;;;;;;;5.25;4.75;;;16.60;58.70;;;;;;5004650;28;20406;-88
2021/08/30 05:58:33;;;;;;;5.50;5.00;;;16.60;58.70;;;;;;5016256;28;20029;-85
2021/08/30 06:00:59;;;;;;;5.63;4.78;;;16.60;58.80;;;;;;5024640;28;20124;-83
2021/08/30 06:03:25;;;;;;;5.38;4.32;;;16.60;58.80;;;;;;5024152;28;20307;-84
2021/08/30 06:05:51;;;;;;;7.45;5.30;;;16.50;58.70;;;;;;5023726;28;20172;-83
2021/08/30 06:08:17;;;;;;;4.72;4.32;;;16.60;58.90;;;;;;5015601;28;20065;-82
2021/08/30 06:10:43;;;;;;;5.53;4.70;;;16.60;58.90;;;;;;5003427;28;20439;-81
2021/08/30 06:13:09;;;;;;;5.32;4.82;;;16.60;58.90;;;;;;4987499;28;20026;-83
2021/08/30 06:15:35;;;;;;;5.15;4.47;;;16.60;58.90;;;;;;5020289;28;20350;-82
2021/08/30 06:18:01;;;;;;;5.00;4.53;;;16.60;58.90;;;;;;5003545;28;20030;-84
2021/08/30 06:20:27;;;;;;;5.80;4.55;;;16.60;58.90;;;;;;4981247;28;20037;-84
2021/08/30 06:22:53;;;;;;;6.40;4.93;;;16.60;58.90;;;;;;4998924;28;20065;-82
2021/08/30 06:25:20;;;;;;;10.18;5.28;;;16.60;58.90;;;;;;4994468;28;20049;-84
2021/08/30 06:27:46;;;;;;;6.57;5.10;;;16.60;58.90;;;;;;5001326;28;20481;-82
2021/08/30 06:30:12;;;;;;;7.10;5.60;;;16.60;58.90;;;;;;5004205;28;20038;-84
2021/08/30 06:32:38;;;;;;;10.50;5.07;;;16.60;58.90;;;;;;4996288;28;20034;-86
2021/08/30 06:35:06;;;;;;;5.85;4.47;;;16.60;58.90;;;;;;4993214;28;20057;-83
2021/08/30 06:37:32;;;;;;;8.77;5.03;;;16.60;59.00;;;;;;4988741;28;20038;-84
2021/08/30 06:39:58;;;;;;;5.43;4.90;;;16.70;59.30;;;;;;5025474;28;20392;-83
2021/08/30 06:42:23;;;;;;;7.13;5.13;;;16.70;59.30;;;;;;5022298;28;20094;-82
2021/08/30 06:44:49;;;;;;;6.95;4.85;;;16.70;59.40;;;;;;4991298;28;20148;-83
2021/08/30 06:47:15;;;;;;;6.53;4.80;;;16.70;59.50;;;;;;5007080;28;20038;-82
2021/08/30 06:49:41;;;;;;;7.50;4.97;;;16.70;59.60;;;;;;5006842;28;20432;-82
2021/08/30 06:52:07;;;;;;;8.02;5.60;;;16.80;59.90;;;;;;5020854;28;20030;-83
2021/08/30 06:54:35;;;;;;;6.72;4.30;;;16.80;60.00;;;;;;5007759;28;20033;-83
2021/08/30 06:57:01;;;;;;;6.25;4.85;;;16.80;60.10;;;;;;5004546;28;20065;-85
2021/08/30 06:59:27;;;;;;;7.50;4.75;;;16.80;60.10;;;;;;5001648;28;20350;-82
2021/08/30 07:01:53;;;;;;;8.85;4.97;;;16.90;60.40;;;;;;4979934;28;20108;-84
2021/08/30 07:04:19;;;;;;;7.78;4.85;;;16.90;60.40;;;;;;5023613;28;20370;-82
2021/08/30 07:06:45;;;;;;;5.70;5.10;;;16.90;60.50;;;;;;5015485;28;20111;-82
2021/08/30 07:09:11;;;;;;;6.50;4.93;;;16.90;60.60;;;;;;5019481;28;20495;-80
2021/08/30 07:11:37;;;;;;;7.22;4.93;;;16.90;60.60;;;;;;5014053;28;20453;-80
2021/08/30 07:14:03;;;;;;;5.82;4.82;;;17.00;60.90;;;;;;5011993;28;20034;-80
2021/08/30 07:16:30;;;;;;;8.40;5.00;;;17.00;60.90;;;;;;4998494;28;20115;-80
2021/08/30 07:18:56;;;;;;;6.15;5.55;;;17.00;61.00;;;;;;5014548;28;20032;-81
2021/08/30 07:21:23;;;;;;;7.53;5.43;;;17.10;61.20;;;;;;5013889;28;20176;-80
2021/08/30 07:23:50;;;;;;;8.70;5.20;;;17.10;61.20;;;;;;5001369;28;20031;-81
2021/08/30 07:26:16;;;;;;;8.55;5.32;;;17.10;61.20;;;;;;5007511;28;20116;-81
2021/08/30 07:28:42;;;;;;;8.38;5.50;;;17.10;61.10;;;;;;5017469;28;20702;-81
2021/08/30 07:31:08;;;;;;;7.03;5.43;;;17.20;61.30;;;;;;5026629;28;20111;-81
2021/08/30 07:33:34;;;;;;;8.05;4.78;;;17.20;61.30;;;;;;5013476;28;20501;-80
2021/08/30 07:36:00;;;;;;;5.28;4.78;;;17.20;61.20;;;;;;5006145;28;20569;-80
2021/08/30 07:38:26;;;;;;;7.53;5.13;;;17.30;61.30;;;;;;4988731;28;20389;-80
2021/08/30 07:40:52;;;;;;;5.85;4.90;;;17.30;61.30;;;;;;5003254;28;20030;-81
2021/08/30 07:43:18;;;;;;;6.90;5.07;;;17.40;61.30;;;;;;4992064;28;20460;-81
2021/08/30 07:45:44;;;;;;;6.90;5.13;;;17.40;61.10;;;;;;5002441;28;20176;-81
2021/08/30 07:48:10;;;;;;;6.13;4.95;;;17.40;60.90;;;;;;5008919;28;20080;-81
2021/08/30 07:50:36;;;;;;;5.47;4.95;;;17.40;60.80;;;;;;4982206;28;20034;-81
2021/08/30 07:53:02;;;;;;;5.60;4.85;;;17.40;60.70;;;;;;5011713;28;20027;-82
2021/08/30 07:55:33;;;;;;;7.60;4.57;;;17.40;60.60;;;;;;4994213;28;20615;-81
2021/08/30 07:58:00;;;;;;;6.97;4.97;;;17.50;60.70;;;;;;4980315;28;20033;-81
2021/08/30 08:00:26;;;;;;;5.63;4.07;;;17.50;60.70;;;;;;5002002;28;20030;-80
2021/08/30 08:02:52;;;;;;;5.05;4.55;;;17.50;60.60;;;;;;4991823;28;20476;-81
2021/08/30 08:05:19;;;;;;;5.43;3.95;;;17.60;60.80;;;;;;5005490;28;20049;-82
2021/08/30 08:07:45;;;;;;;5.47;4.13;;;17.50;60.50;;;;;;5009606;28;20294;-84
2021/08/30 08:10:11;;;;;;;5.43;4.35;;;17.60;60.60;;;;;;4997517;28;20549;-83
2021/08/30 08:12:37;;;;;;;5.07;4.57;;;17.60;60.60;;;;;;5004508;28;20465;-84
2021/08/30 08:15:06;;;;;;;4.97;4.10;;;17.70;60.70;;;;;;5021633;28;20029;-81
2021/08/30 08:17:36;;;;;;;7.82;4.18;;;17.70;60.70;;;;;;4990348;28;20473;-84
2021/08/30 08:20:04;;;;;;;7.10;4.18;;;17.80;60.70;;;;;;5026722;28;20056;-84
2021/08/30 08:22:34;;;;;;;5.00;4.03;;;17.80;60.60;;;;;;5024815;28;20033;-89
2021/08/30 08:25:03;;;;;;;5.25;4.30;;;17.80;60.50;;;;;;5009169;28;20187;-85
2021/08/30 08:27:31;;;;;;;4.97;4.10;;;17.90;60.60;;;;;;5008393;28;20033;-86
2021/08/30 08:29:58;;;;;;;5.70;4.50;;;17.90;60.50;;;;;;4988627;28;20144;-82
2021/08/30 08:32:24;;;;;;;5.00;4.50;;;18.00;60.50;;;;;;5004950;28;20402;-84
2021/08/30 08:34:50;;;;;;;8.30;4.82;;;18.00;60.40;;;;;;5005400;28;20034;-81
2021/08/30 08:37:16;;;;;;;6.63;4.63;;;18.10;60.60;;;;;;5005439;28;20542;-83
2021/08/30 08:39:42;;;;;;;5.70;4.30;;;18.10;61.00;;;;;;5024663;28;20461;-82
2021/08/30 08:42:08;;;;;;;5.57;4.13;;;18.20;60.60;;;;;;5008280;28;20521;-83
2021/08/30 08:44:34;;;;;;;5.07;4.50;;;18.20;60.50;;;;;;5004082;28;20371;-82
2021/08/30 08:47:01;;;;;;;5.97;4.00;;;18.30;60.70;;;;;;5006320;28;20030;-81
2021/08/30 08:49:27;;;;;;;6.47;3.80;;;18.30;60.50;;;;;;5007597;28;20503;-82
2021/08/30 08:51:53;;;;;;;6.55;4.40;;;18.40;60.70;;;;;;5005221;28;20037;-89
2021/08/30 08:54:19;;;;;;;6.47;4.63;;;18.40;60.60;;;;;;5004573;28;20121;-82
2021/08/30 08:56:45;;;;;;;6.00;4.50;;;18.40;60.50;;;;;;5010705;28;20112;-81
2021/08/30 08:59:11;;;;;;;7.85;4.97;;;18.50;60.60;;;;;;4994581;28;20028;-82
2021/08/30 09:01:37;;;;;;;8.20;5.10;;;18.60;60.60;;;;;;4999839;28;20037;-83
2021/08/30 09:04:04;;;;;;;5.10;4.53;;;18.70;60.50;;;;;;5016744;28;20528;-80
2021/08/30 09:06:34;;;;;;;7.70;4.50;;;18.60;60.10;;;;;;5026794;28;20330;-84
2021/08/30 09:09:04;;;;;;;4.85;4.22;;;18.60;60.00;;;;;;5013813;28;20057;-83
2021/08/30 09:11:45;;;;;;;6.72;4.90;;;18.60;60.00;;;;;;5013492;28;20060;-84
2021/08/30 09:14:22;;;;;;;5.93;4.43;;;18.60;60.00;;;;;;5006165;28;20029;-85
2021/08/30 09:17:02;;;;;;;5.80;4.88;;;18.70;60.20;;;;;;5013349;28;20382;-83
2021/08/30 09:19:28;;;;;;;6.28;4.72;;;18.70;60.10;;;;;;5026738;28;20488;-83
2021/08/30 09:21:54;;;;;;;5.82;4.50;;;18.80;60.20;;;;;;5007557;28;20032;-83
2021/08/30 09:24:23;;;;;;;7.28;4.35;;;18.90;60.30;;;;;;5022663;28;20375;-83
2021/08/30 09:27:02;;;;;;;4.60;4.20;;;19.00;60.30;;;;;;5004314;28;20178;-83
2021/08/30 09:29:33;;;;;;;6.15;4.18;;;19.10;60.40;;;;;;4987586;28;20048;-83
2021/08/30 09:32:05;;;;;;;7.38;4.40;;;19.30;60.60;;;;;;5020318;28;20384;-85
2021/08/30 09:34:57;;;;;;;6.10;4.68;;;19.30;60.40;;;;;;5024935;28;20186;-83
2021/08/30 09:37:25;;;;;;;6.07;4.90;;;19.50;60.50;;;;;;5026270;28;20068;-81
2021/08/30 09:39:54;;;;;;;7.53;4.85;;;19.60;60.50;;;;;;5003726;28;20856;-80
2021/08/30 09:42:20;;;;;;;5.32;4.70;;;19.70;60.50;;;;;;5020139;28;20030;-83
2021/08/30 09:44:47;;;;;;;5.78;4.80;;;19.80;60.50;;;;;;5003391;28;20132;-84
2021/08/30 09:47:17;;;;;;;6.70;4.45;;;20.00;60.70;;;;;;5003968;28;20030;-83
2021/08/30 09:49:47;;;;;;;4.78;3.70;;;20.10;60.70;;;;;;5004414;28;20429;-83
2021/08/30 09:52:14;;;;;;;6.88;4.93;;;20.20;60.60;;;;;;5004014;28;20052;-85
2021/08/30 09:54:40;;;;;;;6.00;3.88;;;20.30;60.50;;;;;;5004772;28;20508;-84
2021/08/30 09:57:06;;;;;;;8.13;5.13;;;20.50;60.70;;;;;;5005292;28;20022;-85
2021/08/30 09:59:33;;;;;;;7.03;4.70;;;20.60;60.60;;;;;;5020969;28;20026;-85
2021/08/30 10:02:01;;;;;;;5.32;4.43;;;20.70;60.60;;;;;;5024549;28;20048;-85
2021/08/30 10:04:29;;;;;;;4.85;4.28;;;20.80;60.50;;;;;;5006157;28;20097;-85
2021/08/30 10:06:55;;;;;;;7.22;4.45;;;20.90;60.40;;;;;;5004695;28;20081;-85
2021/08/30 10:09:22;;;;;;;5.22;3.90;;;21.00;60.40;;;;;;4988319;28;20065;-85
2021/08/30 10:11:54;;;;;;;4.28;3.75;;;21.10;60.30;;;;;;5004597;28;20117;-84
2021/08/30 10:14:25;;;;;;;4.78;4.25;;;21.20;60.30;;;;;;5003596;28;20362;-83
2021/08/30 10:16:53;;;;;;;7.10;4.18;;;21.30;60.30;;;;;;5006311;28;20469;-84
2021/08/30 10:19:29;;;;;;;5.75;4.13;;;21.40;60.30;;;;;;5006784;28;20133;-83
2021/08/30 10:21:56;;;;;;;6.72;3.88;;;21.50;60.20;;;;;;5025190;28;20032;-83
2021/08/30 10:24:23;;;;;;;5.10;4.00;;;21.60;60.20;;;;;;5017498;28;20108;-82
2021/08/30 10:26:49;;;;;;;4.70;3.58;;;21.70;60.10;;;;;;5019386;28;20038;-81
2021/08/30 10:29:17;;;;;;;5.90;3.92;;;21.80;60.10;;;;;;5017976;28;20021;-86
2021/08/30 10:31:51;;;;;;;6.20;3.75;;;21.90;60.10;;;;;;5013043;28;20156;-82
2021/08/30 10:34:35;;;;;;;4.28;3.58;;;21.90;59.90;;;;;;5037096;28;20376;-83
2021/08/30 10:37:04;;;;;;;8.65;4.13;;;22.00;59.90;;;;;;5020591;28;20380;-83
2021/08/30 10:39:38;;;;;;;6.88;3.53;;;22.10;60.00;;;;;;5025022;28;20040;-81
2021/08/30 10:42:04;;;;;;;5.35;3.78;;;22.10;59.80;;;;;;5026380;28;20026;-76
2021/08/30 10:44:31;;;;;;;4.95;3.65;;;22.20;59.60;;;;;;5010591;28;20042;-82
2021/08/30 10:47:00;;;;;;;6.57;3.88;;;22.10;59.70;;;;;;5014990;28;20045;-83
2021/08/30 10:49:26;;;;;;;5.45;4.18;;;22.10;58.90;;;;;;4999024;28;20313;-83
2021/08/30 10:52:08;;;;;;;5.13;3.83;;;22.00;58.60;;;;;;5027534;28;20037;-81
2021/08/30 10:54:34;;;;;;;8.05;3.95;;;21.90;58.30;;;;;;5012308;28;20049;-80
2021/08/30 10:57:03;;;;;;;6.05;3.67;;;21.90;58.50;;;;;;5010337;28;20034;-81
2021/08/30 10:59:31;;;;;;;9.27;3.95;;;21.90;58.40;;;;;;5023051;28;20022;-81
2021/08/30 11:02:03;;;;;;;7.82;4.18;;;21.90;58.30;;;;;;5017884;28;20460;-79
2021/08/30 11:04:34;;;;;;;8.00;4.18;;;21.90;58.10;;;;;;5045954;28;20472;-84
2021/08/30 11:07:01;;;;;;;5.10;3.90;;;21.90;57.90;;;;;;5031142;28;20215;-79
2021/08/30 11:09:27;;;;;;;6.30;3.60;;;21.90;57.90;;;;;;5014282;28;20030;-80
2021/08/30 11:11:54;;;;;;;6.10;3.50;;;21.90;57.90;;;;;;5009504;28;20022;-82
2021/08/30 11:14:21;;;;;;;5.10;3.47;;;21.90;57.80;;;;;;5029535;28;20133;-84
2021/08/30 11:16:57;;;;;;;4.20;3.55;;;21.90;57.80;;;;;;5011950;28;20124;-82
2021/08/30 11:19:25;;;;;;;4.93;3.40;;;21.90;57.80;;;;;;5011897;28;20030;-81
2021/08/30 11:21:59;;;;;;;4.78;3.50;;;21.90;57.80;;;;;;5011896;28;20026;-81
2021/08/30 11:24:30;;;;;;;4.78;3.13;;;21.90;57.80;;;;;;5029912;28;20129;-83
2021/08/30 11:27:00;;;;;;;5.05;3.42;;;21.90;57.70;;;;;;5000514;28;20034;-81
2021/08/30 11:29:26;;;;;;;13.05;3.67;;;22.00;57.80;;;;;;4997212;28;20053;-82
2021/08/30 11:31:53;;;;;;;7.45;3.45;;;22.00;57.80;;;;;;4986902;28;20165;-82
2021/08/30 11:34:31;;;;;;;5.32;3.47;;;22.00;57.70;;;;;;5019845;28;20037;-81
2021/08/30 11:37:01;;;;;;;5.38;3.67;;;22.10;57.60;;;;;;5006871;28;20495;-81
2021/08/30 11:39:29;;;;;;;4.13;3.35;;;22.10;57.50;;;;;;5007032;28;20421;-81
2021/08/30 11:42:01;;;;;;;3.83;3.38;;;22.20;57.60;;;;;;5006706;28;20519;-80
2021/08/30 11:44:30;;;;;;;3.55;2.97;;;22.30;57.70;;;;;;5005807;28;20058;-81
2021/08/30 11:46:59;;;;;;;3.83;2.72;;;22.30;57.50;;;;;;4989406;28;20029;-84
2021/08/30 11:49:27;;;;;;;3.75;2.75;;;22.40;57.50;;;;;;5005052;28;20495;-81
2021/08/30 11:51:54;;;;;;;4.18;2.88;;;22.50;57.40;;;;;;5005212;28;20140;-82
2021/08/30 11:54:28;;;;;;;4.10;2.70;;;22.60;57.40;;;;;;4988914;28;20034;-83
2021/08/30 11:57:00;;;;;;;4.32;2.60;;;22.80;57.50;;;;;;5005854;28;20087;-83
2021/08/30 11:59:38;;;;;;;8.05;3.65;;;22.90;57.60;;;;;;5006177;28;20030;-81
2021/08/30 12:02:06;;;;;;;4.30;2.92;;;23.00;57.50;;;;;;5005272;28;20134;-81
2021/08/30 12:04:34;;;;;;;5.00;3.42;;;23.00;57.20;;;;;;5004832;28;20038;-80
2021/08/30 12:07:03;;;;;;;3.55;2.83;;;23.00;57.00;;;;;;4998291;28;20041;-81
2021/08/30 12:09:48;;;;;;;7.60;2.80;;;22.90;56.90;;;;;;5004683;28;20026;-80
2021/08/30 12:12:22;;;;;;;5.53;2.80;;;22.80;56.70;;;;;;5018860;28;20042;-80
2021/08/30 12:15:14;;;;;;;3.83;2.80;;;22.70;56.60;;;;;;4994824;28;20030;-82
2021/08/30 12:17:45;;;;;;;3.17;2.88;;;22.60;56.70;;;;;;5004832;28;20500;-79
2021/08/30 12:20:14;;;;;;;4.38;2.90;;;22.40;56.60;;;;;;5004595;28;20030;-79
2021/08/30 12:22:46;;;;;;;6.53;3.00;;;22.40;56.80;;;;;;5005707;28;20048;-80
2021/08/30 12:25:17;;;;;;;4.32;2.63;;;22.20;56.50;;;;;;4998544;28;20033;-80
2021/08/30 12:27:47;;;;;;;3.53;2.65;;;22.10;56.50;;;;;;5009673;28;20430;-82
2021/08/30 12:30:13;;;;;;;3.78;2.50;;;22.10;56.60;;;;;;4989583;28;20125;-81
2021/08/30 12:33:00;;;;;;;3.88;2.70;;;22.10;56.70;;;;;;4993185;28;20775;-80
2021/08/30 12:35:29;;;;;;;5.05;2.88;;;22.00;56.50;;;;;;5024896;28;20045;-79
2021/08/30 12:38:00;;;;;;;5.80;2.70;;;22.10;56.80;;;;;;4983628;28;20029;-83
2021/08/30 12:40:28;;;;;;;3.63;2.58;;;22.10;56.70;;;;;;4968937;28;20054;-80
2021/08/30 12:42:55;;;;;;;3.63;2.47;;;22.10;56.70;;;;;;4974043;28;20061;-80
2021/08/30 12:45:21;;;;;;;4.45;2.70;;;22.10;56.70;;;;;;4987861;28;20054;-80
2021/08/30 12:47:48;;;;;;;4.47;2.97;;;22.10;56.70;;;;;;5004030;28;20030;-80
2021/08/30 12:50:14;;;;;;;5.53;2.75;;;22.00;56.40;;;;;;5004050;28;20288;-80
2021/08/30 12:52:40;;;;;;;4.68;2.58;;;22.00;56.50;;;;;;5003511;28;20033;-80
2021/08/30 12:55:08;;;;;;;4.47;2.63;;;22.00;56.40;;;;;;5005557;28;20037;-82
2021/08/30 12:57:35;;;;;;;5.30;2.55;;;22.00;56.50;;;;;;5003851;28;20231;-82